Time;durP1;ratioP1;P1;durP2;ratioP2;P2;SDS_P1;SDS_P2;PMS_P1;PMS_P2;Temp;Humidity;BMP_temperature;BMP_pressure;BME280_temperature;BME280_humidity;BME280_pressure;Samples;Min_cycle;Max_cycle;Signal;HPM_P1;HPM_P2
2021/06/10 00:02:13;;;;;;;17.92;15.80;;;15.50;92.50;;;;;;5122905;27;20070;-71
2021/06/10 00:04:39;;;;;;;16.13;14.43;;;15.50;92.60;;;;;;5139089;27;20027;-71
2021/06/10 00:07:06;;;;;;;20.20;17.08;;;15.50;92.70;;;;;;5145351;27;20077;-71
2021/06/10 00:09:32;;;;;;;16.73;14.13;;;15.50;92.80;;;;;;5122788;27;20030;-71
2021/06/10 00:11:58;;;;;;;20.00;17.15;;;15.40;92.80;;;;;;5105337;27;20064;-71
2021/06/10 00:14:24;;;;;;;17.10;15.30;;;15.40;93.00;;;;;;5124549;27;20034;-71
2021/06/10 00:16:50;;;;;;;15.07;13.55;;;15.40;92.90;;;;;;5136311;27;20530;-72
2021/06/10 00:19:16;;;;;;;19.67;17.63;;;15.40;92.80;;;;;;5118010;27;20043;-71
2021/06/10 00:21:42;;;;;;;22.95;20.48;;;15.40;92.80;;;;;;5138362;27;20061;-71
2021/06/10 00:24:08;;;;;;;29.52;26.30;;;15.40;92.60;;;;;;5124872;27;20095;-72
2021/06/10 00:26:34;;;;;;;36.53;28.50;;;15.30;92.50;;;;;;5145973;27;20066;-71
2021/06/10 00:29:01;;;;;;;32.58;26.45;;;15.30;92.70;;;;;;5143815;27;20476;-71
2021/06/10 00:31:27;;;;;;;28.95;25.35;;;15.30;93.10;;;;;;5112158;27;20062;-71
2021/06/10 00:33:56;;;;;;;33.53;28.70;;;15.20;93.20;;;;;;5111232;27;20081;-72
2021/06/10 00:36:21;;;;;;;34.88;28.30;;;15.20;93.40;;;;;;5130426;27;20119;-71
2021/06/10 00:38:48;;;;;;;34.03;28.13;;;15.10;93.50;;;;;;5130801;27;20035;-72
2021/06/10 00:41:14;;;;;;;30.30;26.08;;;15.00;93.50;;;;;;5107928;27;20446;-72
2021/06/10 00:43:40;;;;;;;38.20;31.02;;;15.00;93.60;;;;;;5096170;27;20073;-72
2021/06/10 00:46:07;;;;;;;31.13;27.73;;;15.00;93.80;;;;;;5130511;27;20055;-72
2021/06/10 00:48:34;;;;;;;30.50;24.92;;;14.90;93.80;;;;;;5110724;27;20095;-72
2021/06/10 00:51:04;;;;;;;42.47;32.40;;;14.90;93.70;;;;;;5129348;27;20035;-72
2021/06/10 00:53:32;;;;;;;44.97;33.60;;;14.80;93.70;;;;;;5124278;27;20652;-72
2021/06/10 00:56:01;;;;;;;48.00;37.22;;;14.80;93.90;;;;;;5106884;27;20026;-72
2021/06/10 00:58:28;;;;;;;44.03;34.40;;;14.80;94.00;;;;;;5125854;27;20038;-71
2021/06/10 01:00:55;;;;;;;38.35;32.67;;;14.70;94.00;;;;;;5109143;27;20051;-71
2021/06/10 01:03:21;;;;;;;40.17;31.98;;;14.60;94.20;;;;;;5136777;27;20046;-71
2021/06/10 01:05:57;;;;;;;40.78;32.60;;;14.60;94.30;;;;;;5108359;27;20139;-71
2021/06/10 01:09:00;;;;;;;41.28;34.65;;;14.60;94.40;;;;;;5145277;27;20095;-71
2021/06/10 01:11:39;;;;;;;45.72;36.10;;;14.50;94.60;;;;;;5122947;27;20397;-71
2021/06/10 01:14:31;;;;;;;37.95;30.77;;;14.50;94.80;;;;;;5141291;27;20054;-71
2021/06/10 01:17:00;;;;;;;29.77;25.75;;;14.50;94.90;;;;;;5141461;27;20047;-71
2021/06/10 01:19:42;;;;;;;28.27;24.63;;;14.40;94.50;;;;;;5144560;27;20039;-71
2021/06/10 01:22:26;;;;;;;33.85;29.48;;;14.50;94.40;;;;;;5128353;27;20071;-71
2021/06/10 01:25:22;;;;;;;30.35;27.02;;;14.50;94.60;;;;;;5136016;27;20059;-72
2021/06/10 01:27:54;;;;;;;26.98;24.20;;;14.50;94.50;;;;;;5123483;27;20118;-72
2021/06/10 01:30:23;;;;;;;23.77;21.27;;;14.40;94.50;;;;;;5124602;27;20050;-72
2021/06/10 01:32:54;;;;;;;25.15;22.48;;;14.30;94.40;;;;;;5126715;27;20043;-72
2021/06/10 01:35:23;;;;;;;23.73;21.17;;;14.30;94.30;;;;;;5120926;27;20035;-71
2021/06/10 01:37:52;;;;;;;26.65;23.05;;;14.30;94.30;;;;;;5120354;27;20039;-72
2021/06/10 01:40:22;;;;;;;28.73;24.73;;;14.30;94.20;;;;;;5125862;27;20046;-72
2021/06/10 01:42:49;;;;;;;30.65;27.13;;;14.30;94.50;;;;;;5126563;27;20062;-72
2021/06/10 01:45:16;;;;;;;28.80;25.45;;;14.20;94.60;;;;;;5147484;27;20039;-72
2021/06/10 01:47:45;;;;;;;29.92;23.75;;;14.20;94.60;;;;;;5093546;27;20486;-72
2021/06/10 01:50:13;;;;;;;27.15;23.23;;;14.10;94.60;;;;;;5126992;27;20034;-72
2021/06/10 01:52:42;;;;;;;30.48;25.63;;;14.10;94.70;;;;;;5124857;27;20385;-72
2021/06/10 01:55:12;;;;;;;30.75;26.90;;;14.00;94.90;;;;;;5124745;27;20046;-72
2021/06/10 01:57:40;;;;;;;36.92;28.88;;;13.90;94.90;;;;;;5143596;27;20043;-72
2021/06/10 02:00:11;;;;;;;28.55;25.55;;;13.90;94.80;;;;;;5141690;27;20370;-72
2021/06/10 02:02:44;;;;;;;28.80;24.23;;;13.90;95.20;;;;;;5126924;27;20049;-72
2021/06/10 02:05:11;;;;;;;29.33;25.67;;;13.80;95.00;;;;;;5121738;27;20043;-72
2021/06/10 02:07:40;;;;;;;40.40;31.98;;;13.80;94.90;;;;;;5146173;27;20031;-72
2021/06/10 02:10:10;;;;;;;29.27;25.60;;;13.80;94.80;;;;;;5140101;27;20058;-72
2021/06/10 02:12:46;;;;;;;36.88;30.35;;;13.70;94.60;;;;;;5137465;27;20042;-72
2021/06/10 02:15:15;;;;;;;27.23;24.33;;;13.60;94.70;;;;;;5127992;27;20046;-72
2021/06/10 02:17:41;;;;;;;31.13;27.02;;;13.50;94.70;;;;;;5117801;27;20042;-72
2021/06/10 02:20:12;;;;;;;29.77;25.65;;;13.50;94.90;;;;;;5150236;27;20084;-72
2021/06/10 02:22:38;;;;;;;28.70;25.63;;;13.50;95.20;;;;;;5137127;27;20039;-72
2021/06/10 02:25:05;;;;;;;28.17;22.48;;;13.50;95.10;;;;;;5146949;27;20027;-72
2021/06/10 02:27:31;;;;;;;24.02;21.45;;;13.40;95.00;;;;;;5137176;27;20058;-72
2021/06/10 02:30:00;;;;;;;28.00;24.92;;;13.50;94.90;;;;;;5121777;27;20065;-72
2021/06/10 02:32:26;;;;;;;27.98;23.13;;;13.50;95.20;;;;;;5127550;27;20401;-72
2021/06/10 02:34:53;;;;;;;29.65;24.38;;;13.50;95.00;;;;;;5096865;27;20270;-72
2021/06/10 02:37:21;;;;;;;28.45;25.45;;;13.40;94.80;;;;;;5123979;27;20049;-72
2021/06/10 02:39:49;;;;;;;29.83;25.30;;;13.40;94.90;;;;;;5147057;27;20461;-72
2021/06/10 02:42:17;;;;;;;27.92;23.77;;;13.30;94.90;;;;;;5118254;27;20046;-72
2021/06/10 02:44:49;;;;;;;31.42;24.90;;;13.30;94.90;;;;;;5127823;27;20031;-72
2021/06/10 02:47:16;;;;;;;28.55;24.33;;;13.20;95.00;;;;;;5143118;27;20066;-72
2021/06/10 02:49:46;;;;;;;27.00;23.98;;;13.20;95.10;;;;;;5130797;27;20039;-73
2021/06/10 02:52:17;;;;;;;27.48;23.33;;;13.10;95.20;;;;;;5139678;27;20035;-72
2021/06/10 02:54:44;;;;;;;26.23;23.02;;;13.10;95.10;;;;;;5147451;27;20043;-72
2021/06/10 02:57:10;;;;;;;33.15;25.42;;;13.10;95.10;;;;;;5142465;27;20039;-72
2021/06/10 02:59:38;;;;;;;31.42;26.55;;;13.00;95.10;;;;;;5139500;27;20561;-73
2021/06/10 03:02:07;;;;;;;28.65;24.38;;;12.90;95.20;;;;;;5106316;27;20043;-73
2021/06/10 03:04:44;;;;;;;27.17;24.05;;;12.90;95.70;;;;;;5089838;27;20476;-73
2021/06/10 03:07:13;;;;;;;26.67;23.50;;;12.90;95.10;;;;;;5146005;27;20453;-73
2021/06/10 03:09:42;;;;;;;31.90;26.73;;;12.90;94.90;;;;;;5141276;27;20100;-73
2021/06/10 03:12:10;;;;;;;36.50;28.80;;;12.80;94.90;;;;;;5133171;27;20038;-73
2021/06/10 03:14:37;;;;;;;31.95;26.25;;;12.80;94.80;;;;;;5128931;27;20042;-73
2021/06/10 03:17:04;;;;;;;33.60;28.08;;;12.70;94.80;;;;;;5112991;27;20039;-73
2021/06/10 03:19:30;;;;;;;40.97;31.48;;;12.70;94.90;;;;;;5117548;27;20050;-73
2021/06/10 03:21:56;;;;;;;50.47;34.03;;;12.60;95.00;;;;;;5128341;27;20485;-73
2021/06/10 03:24:23;;;;;;;28.05;24.27;;;12.60;95.10;;;;;;5107998;27;20526;-73
2021/06/10 03:26:49;;;;;;;31.08;24.90;;;12.50;95.30;;;;;;5125869;27;20035;-73
2021/06/10 03:29:15;;;;;;;28.05;23.27;;;12.50;95.50;;;;;;5105451;27;20031;-73
2021/06/10 03:31:44;;;;;;;28.15;24.27;;;12.60;95.40;;;;;;5122579;27;20046;-73
2021/06/10 03:34:11;;;;;;;27.40;23.27;;;12.60;95.50;;;;;;5137514;27;20046;-73
2021/06/10 03:36:37;;;;;;;27.38;24.42;;;12.60;95.40;;;;;;5134030;27;20067;-73
2021/06/10 03:39:06;;;;;;;30.60;25.13;;;12.60;95.40;;;;;;5121127;27;20038;-73
2021/06/10 03:41:33;;;;;;;31.08;26.05;;;12.60;95.30;;;;;;5133596;27;20557;-73
2021/06/10 03:44:00;;;;;;;36.75;29.42;;;12.60;95.50;;;;;;5096427;27;20130;-73
2021/06/10 03:46:28;;;;;;;36.22;28.02;;;12.60;95.60;;;;;;5145299;27;20077;-73
2021/06/10 03:48:55;;;;;;;33.22;27.02;;;12.60;95.10;;;;;;5135582;27;20119;-73
2021/06/10 03:51:21;;;;;;;31.75;26.90;;;12.50;95.00;;;;;;5106307;27;20038;-73
2021/06/10 03:53:49;;;;;;;38.80;31.13;;;12.50;95.10;;;;;;5129406;27;20046;-73
2021/06/10 03:56:19;;;;;;;29.17;25.30;;;12.40;95.20;;;;;;5123784;27;20184;-73
2021/06/10 03:58:45;;;;;;;30.42;26.13;;;12.40;95.40;;;;;;5114240;27;20042;-74
2021/06/10 04:01:11;;;;;;;36.80;30.13;;;12.50;95.40;;;;;;5120280;27;20076;-73
2021/06/10 04:03:38;;;;;;;31.92;27.33;;;12.60;95.40;;;;;;5130322;27;20171;-74
2021/06/10 04:06:06;;;;;;;35.15;29.40;;;12.60;95.40;;;;;;5110079;27;20623;-74
2021/06/10 04:08:43;;;;;;;42.42;31.90;;;12.60;95.40;;;;;;5142617;27;20102;-73
2021/06/10 04:11:16;;;;;;;38.65;31.20;;;12.70;95.50;;;;;;5106401;27;20114;-73
2021/06/10 04:13:42;;;;;;;44.03;32.63;;;12.70;95.50;;;;;;5128110;27;20031;-73
2021/06/10 04:16:23;;;;;;;38.33;29.02;;;12.60;95.40;;;;;;5149407;27;20051;-73
2021/06/10 04:18:50;;;;;;;30.42;26.65;;;12.60;95.50;;;;;;5141206;27;20035;-73
2021/06/10 04:21:17;;;;;;;29.08;23.98;;;12.60;95.50;;;;;;5132634;27;20047;-73
2021/06/10 04:23:45;;;;;;;26.48;23.42;;;12.60;95.70;;;;;;5119248;27;20074;-73
2021/06/10 04:26:11;;;;;;;33.03;28.17;;;12.70;95.70;;;;;;5141362;27;20074;-73
2021/06/10 04:28:42;;;;;;;34.15;28.65;;;12.80;95.90;;;;;;5126006;27;20039;-73
2021/06/10 04:31:07;;;;;;;36.55;31.67;;;12.90;95.90;;;;;;5136695;27;20078;-73
2021/06/10 04:33:34;;;;;;;37.70;31.00;;;12.90;95.90;;;;;;5089610;27;20096;-73
2021/06/10 04:36:00;;;;;;;35.88;28.92;;;13.00;96.10;;;;;;5143366;27;20119;-73
2021/06/10 04:38:33;;;;;;;31.80;26.15;;;13.10;96.00;;;;;;5141956;27;20031;-72
2021/06/10 04:41:00;;;;;;;34.40;29.23;;;13.10;95.90;;;;;;5081364;27;20039;-73
2021/06/10 04:43:38;;;;;;;37.22;31.90;;;13.20;95.80;;;;;;5130213;27;20043;-73
2021/06/10 04:46:05;;;;;;;30.23;26.70;;;13.30;95.70;;;;;;5125972;27;20038;-73
2021/06/10 04:48:32;;;;;;;32.95;26.33;;;13.40;95.70;;;;;;5139540;27;20039;-73
2021/06/10 04:50:59;;;;;;;36.17;29.88;;;13.50;95.80;;;;;;5140234;27;20115;-73
2021/06/10 04:53:40;;;;;;;31.88;27.38;;;13.60;95.80;;;;;;5124676;27;20074;-73
2021/06/10 04:56:06;;;;;;;43.95;35.78;;;13.70;95.80;;;;;;5117319;27;20043;-73
2021/06/10 04:58:37;;;;;;;51.63;41.45;;;13.80;95.80;;;;;;5123064;27;20043;-73
2021/06/10 05:01:04;;;;;;;48.42;39.40;;;13.80;96.00;;;;;;5118256;27;20042;-73
2021/06/10 05:03:32;;;;;;;38.40;33.92;;;14.00;96.30;;;;;;5105105;27;20038;-73
2021/06/10 05:06:01;;;;;;;41.83;35.72;;;14.00;96.20;;;;;;5073402;27;20042;-73
2021/06/10 05:08:32;;;;;;;46.35;38.10;;;14.10;96.30;;;;;;5127385;27;20125;-73
2021/06/10 05:11:01;;;;;;;47.47;38.88;;;14.20;96.30;;;;;;5125917;27;20038;-73
2021/06/10 05:13:28;;;;;;;40.58;35.42;;;14.40;96.30;;;;;;5104060;27;20039;-72
2021/06/10 05:15:57;;;;;;;49.97;40.78;;;14.40;96.30;;;;;;5112104;27;20039;-73
2021/06/10 05:18:25;;;;;;;45.72;39.45;;;14.50;96.50;;;;;;5124636;27;20223;-73
2021/06/10 05:20:58;;;;;;;50.22;41.60;;;14.60;96.50;;;;;;5114502;27;20126;-72
2021/06/10 05:23:26;;;;;;;48.20;38.92;;;14.80;96.60;;;;;;5115304;27;20129;-73
2021/06/10 05:25:53;;;;;;;39.35;34.28;;;14.90;96.60;;;;;;5104479;27;20031;-73
2021/06/10 05:28:20;;;;;;;43.97;36.22;;;14.90;96.60;;;;;;5101054;27;20043;-73
2021/06/10 05:30:46;;;;;;;52.13;39.38;;;15.00;96.50;;;;;;5146392;27;20869;-72
2021/06/10 05:33:12;;;;;;;43.03;35.97;;;15.10;96.50;;;;;;5125657;27;20046;-73
2021/06/10 05:35:38;;;;;;;48.42;39.13;;;15.20;96.60;;;;;;5142815;27;20046;-73
2021/06/10 05:38:04;;;;;;;45.03;38.17;;;15.30;96.60;;;;;;5096441;27;20130;-73
2021/06/10 05:40:30;;;;;;;33.72;29.95;;;15.40;96.60;;;;;;5104296;27;20041;-73
2021/06/10 05:42:56;;;;;;;34.15;30.42;;;15.50;96.60;;;;;;5143017;27;20034;-73
2021/06/10 05:45:22;;;;;;;38.47;33.72;;;15.50;96.50;;;;;;5120741;27;20039;-73
2021/06/10 05:47:49;;;;;;;42.88;36.90;;;15.60;96.40;;;;;;5086887;27;20142;-73
2021/06/10 05:50:15;;;;;;;37.45;32.30;;;15.70;96.30;;;;;;5128176;27;20038;-73
2021/06/10 05:52:42;;;;;;;38.33;33.08;;;15.80;96.30;;;;;;5128514;27;20497;-73
2021/06/10 05:55:09;;;;;;;38.78;34.35;;;15.90;96.10;;;;;;5125938;27;20044;-73
2021/06/10 05:57:39;;;;;;;39.28;33.47;;;16.00;96.00;;;;;;5091100;27;20438;-73
2021/06/10 06:00:07;;;;;;;40.17;35.38;;;16.10;96.10;;;;;;5143108;27;20039;-72
2021/06/10 06:02:33;;;;;;;39.03;34.88;;;16.20;95.90;;;;;;5127565;27;20912;-73
2021/06/10 06:05:13;;;;;;;35.20;31.67;;;16.30;95.80;;;;;;5149360;27;20047;-73
2021/06/10 06:07:39;;;;;;;31.58;28.27;;;16.40;95.80;;;;;;5128362;27;20042;-72
2021/06/10 06:10:05;;;;;;;32.45;29.02;;;16.60;95.60;;;;;;5128008;27;20116;-72
2021/06/10 06:12:47;;;;;;;33.03;29.52;;;16.70;95.40;;;;;;5101020;27;20040;-72
2021/06/10 06:15:15;;;;;;;36.20;32.47;;;16.80;95.30;;;;;;5109468;27;20037;-72
2021/06/10 06:17:43;;;;;;;29.77;26.67;;;16.90;95.20;;;;;;5123513;27;20039;-73
2021/06/10 06:20:09;;;;;;;29.83;26.63;;;17.10;95.00;;;;;;5123409;27;20034;-73
2021/06/10 06:22:40;;;;;;;31.42;28.33;;;17.20;94.40;;;;;;5138504;27;20031;-73
2021/06/10 06:25:06;;;;;;;25.33;22.65;;;17.30;94.30;;;;;;5126674;27;20053;-75
2021/06/10 06:27:33;;;;;;;27.10;24.30;;;17.40;94.00;;;;;;5124800;27;20053;-73
2021/06/10 06:29:59;;;;;;;26.05;23.40;;;17.50;93.20;;;;;;5107860;27;20042;-73
2021/06/10 06:32:25;;;;;;;25.02;22.33;;;17.60;93.10;;;;;;5105248;27;20055;-73
2021/06/10 06:34:52;;;;;;;26.35;22.10;;;17.70;92.90;;;;;;5132293;27;20069;-73
2021/06/10 06:37:18;;;;;;;25.40;22.05;;;17.80;92.60;;;;;;5119485;27;20109;-73
2021/06/10 06:39:48;;;;;;;24.25;21.75;;;17.90;92.50;;;;;;5105349;27;20049;-73
2021/06/10 06:42:13;;;;;;;22.33;19.92;;;18.00;92.40;;;;;;5123458;27;20039;-73
2021/06/10 06:44:40;;;;;;;24.90;22.25;;;18.10;92.10;;;;;;5117182;27;20122;-73
2021/06/10 06:47:06;;;;;;;24.52;21.05;;;18.20;92.10;;;;;;5120884;27;20442;-74
2021/06/10 06:49:40;;;;;;;23.30;20.85;;;18.30;91.40;;;;;;5118928;27;20035;-73
2021/06/10 06:52:06;;;;;;;22.80;20.50;;;18.40;91.10;;;;;;5101345;27;20867;-73
2021/06/10 06:54:32;;;;;;;19.95;18.05;;;18.50;91.30;;;;;;5121556;27;20511;-73
2021/06/10 06:56:58;;;;;;;23.80;21.23;;;18.60;91.00;;;;;;5122519;27;20043;-73
2021/06/10 06:59:24;;;;;;;27.27;18.70;;;18.70;91.20;;;;;;5121903;27;20489;-73
2021/06/10 07:01:51;;;;;;;22.27;20.13;;;18.80;90.80;;;;;;5104193;27;20100;-73
2021/06/10 07:04:17;;;;;;;22.20;20.00;;;19.00;91.10;;;;;;5114910;27;20051;-74
2021/06/10 07:06:47;;;;;;;20.58;18.70;;;19.10;90.50;;;;;;5106211;27;20303;-73
2021/06/10 07:09:13;;;;;;;21.95;19.20;;;19.20;90.30;;;;;;5103119;27;20431;-74
2021/06/10 07:11:42;;;;;;;20.30;18.15;;;19.40;90.30;;;;;;5115680;27;20057;-73
2021/06/10 07:14:09;;;;;;;21.17;19.05;;;19.50;90.10;;;;;;5102201;27;20550;-74
2021/06/10 07:16:36;;;;;;;20.85;18.67;;;19.70;89.50;;;;;;5118655;27;20042;-73
2021/06/10 07:19:06;;;;;;;21.88;19.83;;;19.80;89.50;;;;;;5119791;27;20531;-73
2021/06/10 07:21:49;;;;;;;22.02;19.95;;;19.90;89.00;;;;;;5117637;27;20044;-73
2021/06/10 07:24:25;;;;;;;23.65;20.55;;;20.00;87.70;;;;;;5118460;27;20035;-73
2021/06/10 07:26:53;;;;;;;22.73;20.33;;;20.10;87.60;;;;;;5121035;27;20050;-73
2021/06/10 07:29:22;;;;;;;22.60;20.25;;;20.20;87.10;;;;;;5087334;27;20077;-73
2021/06/10 07:31:48;;;;;;;21.10;18.83;;;20.30;86.70;;;;;;5118409;27;20051;-74
2021/06/10 07:34:14;;;;;;;20.75;18.75;;;20.40;86.60;;;;;;5121487;27;20043;-74
2021/06/10 07:36:42;;;;;;;21.48;19.42;;;20.50;86.40;;;;;;5125199;27;20080;-74
2021/06/10 07:39:13;;;;;;;19.27;17.27;;;20.70;85.70;;;;;;5122719;27;20511;-74
2021/06/10 07:41:39;;;;;;;20.20;18.10;;;20.80;86.60;;;;;;5104526;27;20341;-74
2021/06/10 07:44:08;;;;;;;21.25;18.92;;;20.90;85.30;;;;;;5104835;27;20397;-74
2021/06/10 07:46:34;;;;;;;18.83;16.92;;;21.10;85.30;;;;;;5120024;27;20043;-73
2021/06/10 07:49:02;;;;;;;20.05;18.15;;;21.30;84.80;;;;;;5119936;27;20050;-74
2021/06/10 07:51:28;;;;;;;18.38;16.65;;;21.30;83.00;;;;;;5124557;27;20035;-74
2021/06/10 07:53:54;;;;;;;18.00;16.02;;;21.40;82.70;;;;;;5122191;27;20100;-74
2021/06/10 07:56:23;;;;;;;19.05;17.10;;;21.50;83.10;;;;;;5123990;27;20035;-74
2021/06/10 07:58:49;;;;;;;21.95;18.02;;;21.60;82.80;;;;;;5087102;28;20040;-74
2021/06/10 08:01:15;;;;;;;18.88;17.02;;;21.70;81.60;;;;;;5112627;27;21549;-74
2021/06/10 08:03:41;;;;;;;18.80;16.90;;;21.70;81.10;;;;;;5118693;27;20058;-75
2021/06/10 08:06:07;;;;;;;16.40;14.57;;;21.80;81.60;;;;;;5115576;27;20027;-74
2021/06/10 08:08:33;;;;;;;12.95;11.55;;;21.90;82.20;;;;;;5122283;28;20039;-74
2021/06/10 08:11:05;;;;;;;17.55;15.85;;;22.10;81.30;;;;;;5115863;28;20061;-75
2021/06/10 08:13:32;;;;;;;13.55;12.13;;;22.30;79.50;;;;;;5106183;28;20039;-74
2021/06/10 08:15:58;;;;;;;14.63;13.15;;;22.40;79.30;;;;;;5120168;28;20055;-74
2021/06/10 08:18:26;;;;;;;11.15;9.93;;;22.50;79.90;;;;;;5121618;27;20058;-74
2021/06/10 08:20:53;;;;;;;13.75;12.13;;;22.60;79.40;;;;;;5120437;27;20039;-75
2021/06/10 08:23:18;;;;;;;16.15;14.45;;;22.70;78.10;;;;;;5084968;27;20039;-74
2021/06/10 08:25:44;;;;;;;16.08;14.55;;;22.80;78.50;;;;;;5100051;28;20537;-76
2021/06/10 08:28:14;;;;;;;14.90;13.50;;;22.80;76.70;;;;;;5096385;28;20059;-74
2021/06/10 08:30:41;;;;;;;14.73;13.43;;;22.80;77.30;;;;;;5101163;28;20051;-75
2021/06/10 08:33:07;;;;;;;13.00;11.68;;;22.90;76.20;;;;;;5123945;27;20043;-74
2021/06/10 08:35:34;;;;;;;14.93;12.95;;;22.90;76.50;;;;;;5103775;28;20039;-74
2021/06/10 08:38:03;;;;;;;12.90;11.23;;;23.10;76.90;;;;;;5121126;28;20035;-75
2021/06/10 08:40:29;;;;;;;12.90;11.60;;;23.10;76.50;;;;;;5112361;27;20043;-74
2021/06/10 08:42:58;;;;;;;12.55;11.25;;;23.00;76.40;;;;;;5107630;27;20578;-74
2021/06/10 08:45:28;;;;;;;8.93;7.93;;;23.00;76.80;;;;;;5107490;27;20551;-74
2021/06/10 08:47:54;;;;;;;;;;;23.20;75.00;;;;;;5124679;27;20031;-74
2021/06/10 08:50:30;;;;;;;9.52;8.40;;;23.30;73.80;;;;;;5118117;27;19923;-74
2021/06/10 08:52:59;;;;;;;9.05;8.05;;;23.40;73.70;;;;;;5107150;27;20046;-75
2021/06/10 08:55:33;;;;;;;8.70;7.80;;;23.60;71.30;;;;;;5107759;27;20486;-74
2021/06/10 08:57:59;;;;;;;10.95;9.10;;;23.60;72.30;;;;;;5091729;27;20039;-74
2021/06/10 09:00:31;;;;;;;8.98;7.38;;;23.70;69.70;;;;;;5117741;27;20122;-74
2021/06/10 09:02:59;;;;;;;7.47;6.45;;;23.60;70.40;;;;;;5127583;27;20087;-74
2021/06/10 09:05:30;;;;;;;9.10;6.68;;;23.50;72.60;;;;;;5127546;27;20118;-75
2021/06/10 09:07:59;;;;;;;8.95;7.20;;;23.50;74.20;;;;;;5126770;27;20084;-74
2021/06/10 09:10:36;;;;;;;7.28;6.15;;;23.70;72.50;;;;;;5127699;27;20035;-75
2021/06/10 09:13:06;;;;;;;7.15;6.32;;;23.90;71.80;;;;;;5120352;27;20077;-74
2021/06/10 09:15:37;;;;;;;10.35;8.75;;;24.10;70.30;;;;;;5106428;27;20043;-74
2021/06/10 09:18:04;;;;;;;9.25;6.60;;;24.30;68.40;;;;;;5127385;27;20035;-74
2021/06/10 09:20:45;;;;;;;8.00;6.72;;;24.40;67.70;;;;;;5123920;27;20038;-74
2021/06/10 09:23:19;;;;;;;8.00;6.50;;;24.50;68.20;;;;;;5106691;27;20409;-74
2021/06/10 09:26:02;;;;;;;7.80;6.65;;;24.60;68.70;;;;;;5125841;27;20114;-74
2021/06/10 09:28:39;;;;;;;10.93;6.80;;;24.80;65.80;;;;;;5120762;27;20100;-74
2021/06/10 09:31:05;;;;;;;9.63;6.75;;;24.80;63.50;;;;;;5111668;27;20066;-74
2021/06/10 09:33:40;;;;;;;9.52;7.40;;;24.80;62.90;;;;;;5101488;28;20043;-74
2021/06/10 09:36:07;;;;;;;11.38;7.32;;;24.80;61.80;;;;;;5084516;28;20046;-74
2021/06/10 09:38:33;;;;;;;7.88;6.50;;;24.90;62.90;;;;;;5101763;28;20494;-74
2021/06/10 09:41:07;;;;;;;9.70;6.28;;;25.00;62.20;;;;;;5103990;28;20126;-75
2021/06/10 09:43:47;;;;;;;8.13;6.72;;;25.10;63.60;;;;;;5086786;28;20110;-75
2021/06/10 09:46:15;;;;;;;8.73;6.75;;;25.10;64.10;;;;;;5099864;28;20093;-75
2021/06/10 09:49:05;;;;;;;9.15;6.60;;;25.20;64.10;;;;;;5073640;28;20510;-75
2021/06/10 09:51:35;;;;;;;9.63;7.80;;;25.20;61.10;;;;;;5102600;27;20099;-74
2021/06/10 09:54:01;;;;;;;9.10;7.10;;;25.20;64.80;;;;;;5082210;28;20123;-75
2021/06/10 09:56:27;;;;;;;10.13;7.00;;;25.30;60.30;;;;;;5097051;28;20644;-74
2021/06/10 09:58:55;;;;;;;9.77;6.88;;;25.40;60.90;;;;;;5097081;28;20066;-75
2021/06/10 10:01:24;;;;;;;8.57;7.22;;;25.50;63.20;;;;;;5088501;28;20516;-74
2021/06/10 10:03:51;;;;;;;6.57;5.80;;;25.50;60.40;;;;;;5083579;28;20031;-75
2021/06/10 10:06:30;;;;;;;8.07;6.63;;;25.60;63.40;;;;;;5101829;28;20156;-74
2021/06/10 10:09:07;;;;;;;8.27;7.15;;;25.70;64.60;;;;;;5103235;28;20557;-75
2021/06/10 10:11:36;;;;;;;9.30;6.10;;;25.70;64.30;;;;;;5094900;28;20043;-74
2021/06/10 10:14:07;;;;;;;10.18;7.03;;;25.80;63.50;;;;;;5097541;28;20042;-74
2021/06/10 10:16:35;;;;;;;7.13;6.03;;;25.80;58.20;;;;;;5100729;28;20071;-76
2021/06/10 10:19:04;;;;;;;9.10;6.03;;;25.80;58.70;;;;;;5099309;28;20040;-75
2021/06/10 10:21:32;;;;;;;8.25;6.10;;;25.70;59.60;;;;;;5099437;28;20111;-74
2021/06/10 10:24:09;;;;;;;7.75;5.88;;;25.70;60.40;;;;;;5100636;28;20043;-75
2021/06/10 10:26:41;;;;;;;6.50;4.68;;;25.80;61.30;;;;;;5084441;28;20095;-75
2021/06/10 10:29:11;;;;;;;5.93;4.63;;;25.70;59.50;;;;;;5098632;28;20147;-74
2021/06/10 10:31:41;;;;;;;6.80;4.72;;;25.60;59.80;;;;;;5127103;27;20055;-74
2021/06/10 10:34:29;;;;;;;5.60;4.55;;;25.70;60.10;;;;;;5145118;27;20039;-75
2021/06/10 10:36:55;;;;;;;7.13;5.47;;;25.90;60.80;;;;;;5145618;27;20066;-75
2021/06/10 10:39:34;;;;;;;9.65;5.90;;;26.00;60.40;;;;;;5129143;27;20042;-74
2021/06/10 10:42:00;;;;;;;7.85;4.40;;;26.10;58.80;;;;;;5127748;27;20031;-75
2021/06/10 10:44:31;;;;;;;5.57;5.03;;;26.00;60.00;;;;;;5129084;27;20098;-75
2021/06/10 10:47:03;;;;;;;6.35;5.57;;;26.00;56.50;;;;;;5108782;27;20042;-75
2021/06/10 10:49:37;;;;;;;7.57;5.25;;;26.00;54.90;;;;;;5123571;27;20039;-75
2021/06/10 10:52:16;;;;;;;5.07;4.57;;;26.00;56.10;;;;;;5143181;27;20038;-75
2021/06/10 10:54:49;;;;;;;9.43;5.40;;;26.00;55.20;;;;;;5131853;27;20039;-75
2021/06/10 10:57:30;;;;;;;6.25;4.47;;;26.10;54.80;;;;;;5106655;27;20047;-75
2021/06/10 10:59:58;;;;;;;5.13;3.72;;;26.10;60.00;;;;;;5113022;27;20058;-75
2021/06/10 11:02:30;;;;;;;8.23;4.65;;;26.20;58.80;;;;;;5133280;27;20042;-75
2021/06/10 11:04:58;;;;;;;5.45;3.72;;;26.40;56.10;;;;;;5099634;27;20086;-76
2021/06/10 11:07:36;;;;;;;6.13;4.20;;;26.50;58.00;;;;;;5133850;27;20100;-75
2021/06/10 11:10:19;;;;;;;7.03;4.50;;;26.60;56.80;;;;;;5131686;27;20136;-80
2021/06/10 11:12:52;;;;;;;5.10;4.50;;;26.60;53.20;;;;;;5114145;27;20045;-75
2021/06/10 11:15:25;;;;;;;5.40;4.05;;;26.50;54.00;;;;;;5132101;27;20126;-76
2021/06/10 11:18:02;;;;;;;4.75;3.72;;;26.60;56.40;;;;;;5130529;27;20039;-75
2021/06/10 11:20:37;;;;;;;6.97;4.25;;;26.80;52.90;;;;;;5116402;27;20031;-75
2021/06/10 11:23:25;;;;;;;6.22;4.10;;;27.00;53.10;;;;;;5130830;27;20111;-75
2021/06/10 11:25:57;;;;;;;4.75;3.25;;;27.00;50.30;;;;;;5106960;27;20039;-76
2021/06/10 11:28:27;;;;;;;5.03;3.30;;;27.00;52.80;;;;;;5118447;27;20031;-77
2021/06/10 11:31:13;;;;;;;4.15;3.45;;;27.00;52.20;;;;;;5094263;27;20785;-76
2021/06/10 11:33:39;;;;;;;5.30;3.60;;;26.70;52.10;;;;;;5109591;27;20052;-75
2021/06/10 11:36:07;;;;;;;3.95;3.05;;;26.70;49.30;;;;;;5106097;27;20779;-75
2021/06/10 11:38:51;;;;;;;6.25;2.78;;;26.80;50.00;;;;;;5125352;27;20043;-75
2021/06/10 11:41:23;;;;;;;5.15;3.00;;;27.00;56.40;;;;;;5108771;27;20344;-76
2021/06/10 11:43:58;;;;;;;6.00;3.50;;;27.00;50.60;;;;;;5111724;27;20062;-74
2021/06/10 11:46:39;;;;;;;5.95;3.35;;;26.80;50.90;;;;;;5119982;27;20114;-76
2021/06/10 11:49:08;;;;;;;4.45;2.75;;;26.70;51.50;;;;;;5103530;27;20027;-75
2021/06/10 11:51:37;;;;;;;6.22;3.45;;;26.90;53.90;;;;;;5118302;27;20084;-76
2021/06/10 11:54:14;;;;;;;4.43;3.80;;;27.00;48.40;;;;;;5113328;27;20118;-76
2021/06/10 11:56:47;;;;;;;5.15;3.13;;;27.00;47.30;;;;;;5117961;27;20117;-75
2021/06/10 11:59:15;;;;;;;5.78;3.25;;;27.00;45.90;;;;;;5110769;27;20063;-76
2021/06/10 12:01:55;;;;;;;8.63;3.58;;;26.90;47.50;;;;;;5111026;27;20067;-76
2021/06/10 12:04:27;;;;;;;4.55;3.35;;;26.90;47.80;;;;;;5121843;27;20540;-76
2021/06/10 12:07:14;;;;;;;6.88;3.25;;;27.00;50.50;;;;;;5108738;27;20093;-75
2021/06/10 12:09:51;;;;;;;5.53;4.18;;;27.20;49.10;;;;;;5119224;27;20054;-75
2021/06/10 12:12:44;;;;;;;6.60;3.60;;;27.30;46.20;;;;;;5119462;27;20095;-75
2021/06/10 12:15:17;;;;;;;5.90;3.45;;;27.40;50.00;;;;;;5113665;27;20926;-76
2021/06/10 12:17:55;;;;;;;6.40;3.55;;;27.40;49.70;;;;;;5118448;27;20457;-81
2021/06/10 12:20:27;;;;;;;4.72;3.58;;;27.40;49.70;;;;;;5119737;27;20058;-75
2021/06/10 12:22:53;;;;;;;3.90;3.20;;;27.30;47.60;;;;;;5123252;27;20057;-75
2021/06/10 12:25:31;;;;;;;5.35;4.05;;;27.40;48.60;;;;;;5106961;27;20043;-76
2021/06/10 12:27:59;;;;;;;6.55;3.42;;;27.50;46.00;;;;;;5109037;27;20055;-76
2021/06/10 12:30:39;;;;;;;5.13;3.13;;;27.50;48.40;;;;;;5118076;27;20062;-76
2021/06/10 12:33:25;;;;;;;6.28;3.30;;;27.60;44.80;;;;;;5110379;27;20108;-75
2021/06/10 12:35:56;;;;;;;4.22;2.70;;;27.60;46.30;;;;;;5142393;27;20035;-75
2021/06/10 12:38:31;;;;;;;5.55;3.05;;;27.60;48.30;;;;;;5117405;27;20117;-76
2021/06/10 12:41:20;;;;;;;4.05;3.30;;;27.60;48.80;;;;;;5132460;27;20043;-75
2021/06/10 12:43:46;;;;;;;;;;;27.60;46.20;;;;;;5121703;27;20061;-76
2021/06/10 12:46:14;;;;;;;6.20;3.20;;;27.70;46.60;;;;;;5128125;27;19919;-75
2021/06/10 12:48:40;;;;;;;5.50;2.90;;;27.90;45.00;;;;;;5126310;27;20034;-76